Weston, Idaho
Current Conditions -  °F | °C
As of 11:51 AM on Thursday 23 Oct 2014 (Local Time) from KLGU Reporting Station
Clear Clear  
Wind Chill: 51°   Ceiling: Unl
Heat Index: 51°   Visibility: 10mi
Dew Point: 33°   Wind: 3mph
Humidity: 50%   Direction: 350°N
Pressure: 30.16"   Gusts: NA
Location:  42.04°N, 111.98°W
Report Text: KLGU 231751Z AUTO 35003KT 10SM CLR 11/01 A3016 RMK AO2 SLP207 T01060006 10106 20000 58002 TSNO
Loading
Personal Weather Stations






























Interactive Weather Map
Tropical Storm Tracking
New forecast layout! Learn more

10-Day Weather Forecast

Advertisements
Track Severe Weather on mobile